Etusivu
METAR-TAF:

METAR-TAF

Lentoasemat :

Baza 71 Aeriană

Câmpia Turzii, Romania

Leveyspiiri: 46-30-12N, Pituuspiiri: 023-53-07E, korkeus merenpinnasta: 324 m

Tämänhetkinen sää

Tämä raportti tehtiin 50 minuuttia sitten, kello 19.00 UTC
Tuuli 7 kn lännestä/luoteesta
Lämpötila 9°C
Kosteus 40%
Ilmanpaine 1025 hPa
Näkyvyys 10 km tai enemmän
selkeää

METAR: LRCT 081900Z 30007KT 9999 SKC 09/M04 Q1025 BLU BLU

Aika: 22:50 (19:50 UTC)

Sääennuste

Tämä raportti tehtiin 2 tuntia ja 50 minuuttia sitten, kello 17.00 UTC
Ennuste voimassa 08. päivästä klo 18 UTC - 09. päivään klo 18 UTC
Tuuli 5 kn pohjoisesta
Näkyvyys 10 km tai enemmän
selkeää

TAF: LRCT 081700Z 0818/0918 35005KT 9999 SKC

Säähavainnot ja -ennusteet yli 4000 lentoasemalta (METAR- ja TAF-raportit).

Käytössä olevat sääasemat on merkitty karttaan keltaisilla ja punaisilla pisteillä.

Aseta hiiri pisteen päälle nähdäksesi sääaseman nimen.

Klikkaa sitten nähdäksesi säähavainnot ja -ennusteet.

Kartan vaihtaminen: klikkaa mustalla rastilla varustettuja vihreitä pisteitä, niin voit zoomata sisään; viivalla varustettua vihreää pistettä, niin voit zoomata ulos tai vihreitä nuolia, niin pääset viereisille kartoille.


METAR-TAF: